^^
Saratoga-Weather Station Historical Data
Daily Summary for November 26, 2021 Units:  Metric    English   Both
Daily Weekly Monthly Yearly Custom
  High: Low: Average:
Temperature: 2.6 °C 0.2 °C 1.3 °C
Dew Point: 1.9 °C -0.8 °C 0.4 °C
Humidity: 96% 90% 94%
Wind Speed: 7.9km/h 0km/h 0.9km/h
Wind Gust: 12.9km/h - -
Wind- - West
Pressure: 1009.5 hPa 1004.7 hPa -
Precipitation: 0.0 mm    
Historical Graphs
 
 
Tabular Data for November 26, 2021
Time Temperature Dew Point Pressure Wind Wind Speed Wind Gust Humidity Rainfall Rate (Hourly) solar
00:01 1 °C -0.5 °C 1009.5 hPa Calm     90% 0.0 mm 0 W/m2
00:06 0.9 °C -0.4 °C 1009.5 hPa Calm     91% 0.0 mm 0 W/m2
00:11 0.8 °C -0.5 °C 1009.1 hPa Calm     91% 0.0 mm 0 W/m2
00:16 0.8 °C -0.4 °C 1009.1 hPa Calm     92% 0.0 mm 0 W/m2
00:21 0.7 °C -0.5 °C 1009.1 hPa Calm   1.6 km/h 92% 0.0 mm 0 W/m2
00:26 0.6 °C -0.5 °C 1009.5 hPa Calm     92% 0.0 mm 0 W/m2
00:31 0.5 °C -0.6 °C 1009.1 hPa Calm   1.6 km/h 92% 0.0 mm 0 W/m2
00:36 0.4 °C -0.7 °C 1009.1 hPa Calm     92% 0.0 mm 0 W/m2
00:41 0.3 °C -0.8 °C 1009.1 hPa Calm     92% 0.0 mm 0 W/m2
00:46 0.3 °C -0.7 °C 1009.1 hPa Calm     93% 0.0 mm 0 W/m2
00:51 0.2 °C -0.8 °C 1009.1 hPa Calm     93% 0.0 mm 0 W/m2
00:56 0.2 °C -0.8 °C 1009.1 hPa Calm     93% 0.0 mm 0 W/m2
01:01 0.3 °C -0.7 °C 1008.8 hPa Calm     93% 0.0 mm 0 W/m2
01:06 0.5 °C -0.4 °C 1008.8 hPa WSW 1.4 km/h 4.8 km/h 94% 0.0 mm 0 W/m2
01:11 0.9 °C 0.2 °C 1008.8 hPa West 1.4 km/h 4.8 km/h 95% 0.0 mm 0 W/m2
01:16 1.4 °C 0.7 °C 1008.8 hPa WSW 6.4 km/h 6.4 km/h 95% 0.0 mm 0 W/m2
01:21 1.7 °C 1 °C 1008.5 hPa Calm   1.6 km/h 95% 0.0 mm 0 W/m2
01:26 1.8 °C 1.1 °C 1008.5 hPa SW 6.4 km/h 6.4 km/h 95% 0.0 mm 0 W/m2
01:31 1.9 °C 1.2 °C 1008.5 hPa Calm     95% 0.0 mm 0 W/m2
01:36 1.9 °C 1.2 °C 1008.5 hPa West 1.4 km/h 3.2 km/h 95% 0.0 mm 0 W/m2
01:41 2 °C 1.1 °C 1008.5 hPa Calm   1.6 km/h 94% 0.0 mm 0 W/m2
01:46 2.1 °C 1.2 °C 1008.5 hPa Calm     94% 0.0 mm 0 W/m2
01:51 2.1 °C 1.2 °C 1008.5 hPa Calm     94% 0.0 mm 0 W/m2
01:56 2.2 °C 1.3 °C 1008.1 hPa WSW 3.2 km/h 3.2 km/h 94% 0.0 mm 0 W/m2
02:01 2.2 °C 1.3 °C 1008.1 hPa WSW 3.2 km/h 3.2 km/h 94% 0.0 mm 0 W/m2
02:06 2.3 °C 1.4 °C 1008.1 hPa Calm   1.6 km/h 94% 0.0 mm 0 W/m2
02:11 2.4 °C 1.5 °C 1008.1 hPa West 3.2 km/h 3.2 km/h 94% 0.0 mm 0 W/m2
02:16 2.3 °C 1.4 °C 1008.1 hPa Calm     94% 0.0 mm 0 W/m2
02:21 2.2 °C 1.2 °C 1007.8 hPa Calm     93% 0.0 mm 0 W/m2
02:26 2.1 °C 1.1 °C 1007.8 hPa Calm     93% 0.0 mm 0 W/m2
02:31 1.9 °C 0.9 °C 1007.8 hPa Calm     93% 0.0 mm 0 W/m2
02:36 1.7 °C 0.7 °C 1007.5 hPa Calm     93% 0.0 mm 0 W/m2
02:41 1.6 °C 0.6 °C 1007.8 hPa Calm     93% 0.0 mm 0 W/m2
02:46 1.3 °C 0.1 °C 1007.5 hPa Calm     92% 0.0 mm 0 W/m2
02:51 1.2 °C 0.2 °C 1007.5 hPa Calm     93% 0.0 mm 0 W/m2
02:56 1 °C -0.2 °C 1007.8 hPa Calm     92% 0.0 mm 0 W/m2
03:01 0.8 °C -0.2 °C 1007.5 hPa West 1.4 km/h 3.2 km/h 93% 0.0 mm 0 W/m2
03:07 0.8 °C -0.2 °C 1007.5 hPa Calm     93% 0.0 mm 0 W/m2
03:12 0.7 °C -0.3 °C 1007.5 hPa Calm     93% 0.0 mm 0 W/m2
03:17 0.7 °C -0.3 °C 1007.5 hPa Calm     93% 0.0 mm 0 W/m2
03:22 0.6 °C -0.4 °C 1007.5 hPa Calm     93% 0.0 mm 0 W/m2
03:27 0.5 °C -0.5 °C 1007.1 hPa Calm     93% 0.0 mm 0 W/m2
03:32 0.4 °C -0.6 °C 1007.1 hPa Calm     93% 0.0 mm 0 W/m2
03:37 0.3 °C -0.6 °C 1007.1 hPa Calm     94% 0.0 mm 0 W/m2
03:42 0.3 °C -0.6 °C 1007.1 hPa Calm     94% 0.0 mm 0 W/m2
03:47 0.3 °C -0.6 °C 1006.8 hPa Calm     94% 0.0 mm 0 W/m2
03:52 0.3 °C -0.6 °C 1006.8 hPa Calm     94% 0.0 mm 0 W/m2
03:57 0.4 °C -0.5 °C 1006.8 hPa Calm     94% 0.0 mm 0 W/m2
04:02 0.4 °C -0.5 °C 1006.4 hPa Calm     94% 0.0 mm 0 W/m2
04:07 0.6 °C -0.1 °C 1006.8 hPa Calm   1.6 km/h 95% 0.0 mm 0 W/m2
04:12 0.6 °C -0.1 °C 1006.4 hPa Calm     95% 0.0 mm 0 W/m2
04:17 0.6 °C -0.1 °C 1006.4 hPa Calm     95% 0.0 mm 0 W/m2
04:22 0.7 °C 0 °C 1006.4 hPa Calm     95% 0.0 mm 0 W/m2
04:27 0.7 °C 0 °C 1006.4 hPa Calm     95% 0.0 mm 0 W/m2
04:32 0.8 °C 0.1 °C 1006.1 hPa Calm   1.6 km/h 95% 0.0 mm 0 W/m2
04:37 0.8 °C 0.1 °C 1006.1 hPa Calm     95% 0.0 mm 0 W/m2
04:42 0.8 °C 0.1 °C 1006.1 hPa Calm   1.6 km/h 95% 0.0 mm 0 W/m2
04:47 0.9 °C 0.2 °C 1006.1 hPa Calm     95% 0.0 mm 0 W/m2
04:52 1 °C 0.3 °C 1005.8 hPa Calm   1.6 km/h 95% 0.0 mm 0 W/m2
04:57 1.1 °C 0.4 °C 1005.8 hPa Calm   3.2 km/h 95% 0.0 mm 0 W/m2
05:07 1.3 °C 0.6 °C 1005.8 hPa Calm   3.2 km/h 95% 0.0 mm 0 W/m2
05:12 1.3 °C 0.6 °C 1005.8 hPa Calm   3.2 km/h 95% 0.0 mm 0 W/m2
05:17 1.4 °C 0.7 °C 1005.8 hPa NW 3.2 km/h 4.8 km/h 95% 0.0 mm 0 W/m2
05:22 1.7 °C 1 °C 1005.8 hPa WSW 7.9 km/h 11.3 km/h 95% 0.0 mm 0 W/m2
05:27 2 °C 1.4 °C 1005.8 hPa Calm   3.2 km/h 96% 0.0 mm 0 W/m2
05:32 2.3 °C 1.7 °C 1005.8 hPa WNW 4.7 km/h 11.3 km/h 96% 0.0 mm 0 W/m2
05:37 2.4 °C 1.7 °C 1005.4 hPa West 3.2 km/h 11.3 km/h 95% 0.0 mm 0 W/m2
05:42 2.6 °C 1.9 °C 1005.4 hPa West 1.4 km/h 11.3 km/h 95% 0.0 mm 0 W/m2
05:47 2.6 °C 1.9 °C 1005.4 hPa NW 3.2 km/h 11.3 km/h 95% 0.0 mm 0 W/m2
05:52 2.6 °C 1.9 °C 1005.4 hPa West 3.2 km/h 12.9 km/h 95% 0.0 mm 0 W/m2
05:57 2.5 °C 1.6 °C 1005.4 hPa SW 1.4 km/h 6.4 km/h 94% 0.0 mm 0 W/m2
06:07 2.6 °C 1.7 °C 1005.1 hPa SW 4.7 km/h 4.8 km/h 94% 0.0 mm 0 W/m2
06:12 2.6 °C 1.7 °C 1005.1 hPa WNW 3.2 km/h 6.4 km/h 94% 0.0 mm 0 W/m2
06:17 2.6 °C 1.7 °C 1005.1 hPa West 3.2 km/h 9.7 km/h 94% 0.0 mm 0 W/m2
06:27 2.6 °C 1.7 °C 1004.7 hPa West 1.4 km/h 8 km/h 94% 0.0 mm 0 W/m2
06:32 2.6 °C 1.7 °C 1005.1 hPa WSW 1.4 km/h 6.4 km/h 94% 0.0 mm 0 W/m2
Juneau County Weather
Compliments of Weather Underground - 4 mb